Cachoeira de Minas, Brazil
Current Conditions -  °F | °C
As of 2:00 PM on Thursday 29 Jan 2015 (Local Time) from SBGW Reporting Station
Broken Clouds Broken Clouds  
Wind Chill: 91°   Ceiling: 2500
Heat Index: 94°   Visibility: 6mi
Dew Point: 66°   Wind: 6mph
Humidity: 43%   Direction: 220°SW
Pressure: 29.94"   Gusts: NA
Location:  22.36°S, 45.78°W
Report Text: SBGW 291600Z 22005KT 9999 BKN025 33/19 Q1014
Loading
Personal Weather Stations






























Interactive Weather Map New forecast layout! Learn more

10-Day Weather Forecast

Advertisements
Track Severe Weather on mobile